sensor_id;sensor_type;location;lat;lon;timestamp;temperature;humidity
5192;DHT22;2615;44.524;11.284;2023-02-22T00:08:57;11.30;62.90
5192;DHT22;2615;44.524;11.284;2023-02-22T00:11:25;11.30;62.80
5192;DHT22;2615;44.524;11.284;2023-02-22T00:13:54;11.30;62.90
5192;DHT22;2615;44.524;11.284;2023-02-22T00:16:24;11.30;63.00
5192;DHT22;2615;44.524;11.284;2023-02-22T00:18:52;11.30;63.00
5192;DHT22;2615;44.524;11.284;2023-02-22T00:21:21;11.20;63.00
5192;DHT22;2615;44.524;11.284;2023-02-22T00:23:49;11.30;63.20
5192;DHT22;2615;44.524;11.284;2023-02-22T00:26:21;11.20;63.00
5192;DHT22;2615;44.524;11.284;2023-02-22T00:28:51;11.20;63.10
5192;DHT22;2615;44.524;11.284;2023-02-22T00:31:20;11.20;63.50
5192;DHT22;2615;44.524;11.284;2023-02-22T00:33:49;11.20;63.20
5192;DHT22;2615;44.524;11.284;2023-02-22T00:36:17;11.20;63.30
5192;DHT22;2615;44.524;11.284;2023-02-22T00:38:45;11.10;63.20
5192;DHT22;2615;44.524;11.284;2023-02-22T00:41:13;11.20;63.30
5192;DHT22;2615;44.524;11.284;2023-02-22T00:43:43;11.10;63.30
5192;DHT22;2615;44.524;11.284;2023-02-22T00:46:12;11.10;63.30
5192;DHT22;2615;44.524;11.284;2023-02-22T00:48:41;11.10;63.30
5192;DHT22;2615;44.524;11.284;2023-02-22T00:51:09;11.10;63.50
5192;DHT22;2615;44.524;11.284;2023-02-22T00:53:37;11.10;63.50
5192;DHT22;2615;44.524;11.284;2023-02-22T00:56:06;11.10;63.50
5192;DHT22;2615;44.524;11.284;2023-02-22T00:58:34;11.10;63.60
5192;DHT22;2615;44.524;11.284;2023-02-22T01:01:03;11.10;63.70
5192;DHT22;2615;44.524;11.284;2023-02-22T01:03:32;11.00;63.60
5192;DHT22;2615;44.524;11.284;2023-02-22T01:06:00;11.00;63.70
5192;DHT22;2615;44.524;11.284;2023-02-22T01:08:29;11.00;63.70
5192;DHT22;2615;44.524;11.284;2023-02-22T01:10:58;11.00;63.80
5192;DHT22;2615;44.524;11.284;2023-02-22T01:13:26;11.00;63.80
5192;DHT22;2615;44.524;11.284;2023-02-22T01:15:54;10.90;63.70
5192;DHT22;2615;44.524;11.284;2023-02-22T01:18:25;10.90;63.70
5192;DHT22;2615;44.524;11.284;2023-02-22T01:20:53;11.00;63.90
5192;DHT22;2615;44.524;11.284;2023-02-22T01:23:21;10.90;63.80
5192;DHT22;2615;44.524;11.284;2023-02-22T01:25:49;10.90;63.80
5192;DHT22;2615;44.524;11.284;2023-02-22T01:28:17;11.00;63.90
5192;DHT22;2615;44.524;11.284;2023-02-22T01:30:45;10.90;63.80
5192;DHT22;2615;44.524;11.284;2023-02-22T01:33:14;10.90;63.90
5192;DHT22;2615;44.524;11.284;2023-02-22T01:35:43;10.90;63.90
5192;DHT22;2615;44.524;11.284;2023-02-22T01:38:12;10.90;64.00
5192;DHT22;2615;44.524;11.284;2023-02-22T01:40:42;10.90;64.00
5192;DHT22;2615;44.524;11.284;2023-02-22T01:43:19;10.90;64.10
5192;DHT22;2615;44.524;11.284;2023-02-22T01:45:53;10.90;64.10
5192;DHT22;2615;44.524;11.284;2023-02-22T01:48:27;10.90;64.10
5192;DHT22;2615;44.524;11.284;2023-02-22T01:51:00;10.90;64.10
5192;DHT22;2615;44.524;11.284;2023-02-22T01:53:34;10.90;64.20
5192;DHT22;2615;44.524;11.284;2023-02-22T01:56:05;10.90;64.20
5192;DHT22;2615;44.524;11.284;2023-02-22T01:58:34;10.90;64.20
5192;DHT22;2615;44.524;11.284;2023-02-22T02:01:05;10.90;64.30
5192;DHT22;2615;44.524;11.284;2023-02-22T02:03:36;10.90;64.30
5192;DHT22;2615;44.524;11.284;2023-02-22T02:06:08;10.90;64.40
5192;DHT22;2615;44.524;11.284;2023-02-22T02:08:45;10.90;64.40
5192;DHT22;2615;44.524;11.284;2023-02-22T02:11:19;10.90;64.50
5192;DHT22;2615;44.524;11.284;2023-02-22T02:13:51;10.90;64.50
5192;DHT22;2615;44.524;11.284;2023-02-22T02:16:21;10.90;64.60
5192;DHT22;2615;44.524;11.284;2023-02-22T02:18:50;10.90;64.60
5192;DHT22;2615;44.524;11.284;2023-02-22T02:21:44;10.90;64.70
5192;DHT22;2615;44.524;11.284;2023-02-22T02:27:24;10.90;64.80
5192;DHT22;2615;44.524;11.284;2023-02-22T02:32:56;10.90;64.80
5192;DHT22;2615;44.524;11.284;2023-02-22T02:35:35;10.90;64.80
5192;DHT22;2615;44.524;11.284;2023-02-22T02:38:11;10.80;64.70
5192;DHT22;2615;44.524;11.284;2023-02-22T02:40:46;10.80;64.70
5192;DHT22;2615;44.524;11.284;2023-02-22T02:43:22;10.80;64.80
5192;DHT22;2615;44.524;11.284;2023-02-22T02:45:59;10.80;64.90
5192;DHT22;2615;44.524;11.284;2023-02-22T02:48:33;10.80;64.90
5192;DHT22;2615;44.524;11.284;2023-02-22T02:51:04;10.80;65.00
5192;DHT22;2615;44.524;11.284;2023-02-22T02:53:36;10.80;65.00
5192;DHT22;2615;44.524;11.284;2023-02-22T02:56:05;10.80;65.00
5192;DHT22;2615;44.524;11.284;2023-02-22T02:58:46;10.80;65.00
5192;DHT22;2615;44.524;11.284;2023-02-22T03:01:23;10.80;65.20
5192;DHT22;2615;44.524;11.284;2023-02-22T03:07:10;10.80;65.30
5192;DHT22;2615;44.524;11.284;2023-02-22T03:09:53;10.80;65.30
5192;DHT22;2615;44.524;11.284;2023-02-22T03:12:33;10.80;65.30
5192;DHT22;2615;44.524;11.284;2023-02-22T03:15:16;10.80;65.30
5192;DHT22;2615;44.524;11.284;2023-02-22T03:17:53;10.80;65.40
5192;DHT22;2615;44.524;11.284;2023-02-22T03:20:27;10.80;65.40
5192;DHT22;2615;44.524;11.284;2023-02-22T03:23:02;10.80;65.40
5192;DHT22;2615;44.524;11.284;2023-02-22T03:25:35;10.80;65.50
5192;DHT22;2615;44.524;11.284;2023-02-22T03:28:08;10.70;65.50
5192;DHT22;2615;44.524;11.284;2023-02-22T03:30:43;10.70;65.50
5192;DHT22;2615;44.524;11.284;2023-02-22T03:33:16;10.70;65.50
5192;DHT22;2615;44.524;11.284;2023-02-22T03:35:53;10.70;65.50
5192;DHT22;2615;44.524;11.284;2023-02-22T03:38:26;10.80;65.70
5192;DHT22;2615;44.524;11.284;2023-02-22T03:40:58;10.70;65.70
5192;DHT22;2615;44.524;11.284;2023-02-22T03:43:30;10.70;65.70
5192;DHT22;2615;44.524;11.284;2023-02-22T03:46:01;10.70;65.70
5192;DHT22;2615;44.524;11.284;2023-02-22T03:48:36;10.70;65.80
5192;DHT22;2615;44.524;11.284;2023-02-22T03:51:06;10.70;65.80
5192;DHT22;2615;44.524;11.284;2023-02-22T03:53:34;10.70;65.80
5192;DHT22;2615;44.524;11.284;2023-02-22T03:56:04;10.70;65.90
5192;DHT22;2615;44.524;11.284;2023-02-22T03:58:38;10.70;66.10
5192;DHT22;2615;44.524;11.284;2023-02-22T04:01:10;10.70;66.10
5192;DHT22;2615;44.524;11.284;2023-02-22T04:03:39;10.70;66.20
5192;DHT22;2615;44.524;11.284;2023-02-22T04:06:09;10.70;66.20
5192;DHT22;2615;44.524;11.284;2023-02-22T04:08:37;10.70;66.20
5192;DHT22;2615;44.524;11.284;2023-02-22T04:11:06;10.70;66.30
5192;DHT22;2615;44.524;11.284;2023-02-22T04:13:34;10.70;66.30
5192;DHT22;2615;44.524;11.284;2023-02-22T04:16:02;10.70;66.30
5192;DHT22;2615;44.524;11.284;2023-02-22T04:18:30;10.70;66.60
5192;DHT22;2615;44.524;11.284;2023-02-22T04:20:58;10.70;66.40
5192;DHT22;2615;44.524;11.284;2023-02-22T04:23:27;10.70;66.50
5192;DHT22;2615;44.524;11.284;2023-02-22T04:25:55;10.70;66.50
5192;DHT22;2615;44.524;11.284;2023-02-22T04:28:24;10.60;66.40
5192;DHT22;2615;44.524;11.284;2023-02-22T04:30:52;10.60;66.50
5192;DHT22;2615;44.524;11.284;2023-02-22T04:33:20;10.60;66.50
5192;DHT22;2615;44.524;11.284;2023-02-22T04:35:48;10.60;66.60
5192;DHT22;2615;44.524;11.284;2023-02-22T04:38:17;10.60;66.60
5192;DHT22;2615;44.524;11.284;2023-02-22T04:40:47;10.60;66.70
5192;DHT22;2615;44.524;11.284;2023-02-22T04:43:15;10.60;66.70
5192;DHT22;2615;44.524;11.284;2023-02-22T04:45:43;10.60;66.70
5192;DHT22;2615;44.524;11.284;2023-02-22T04:48:11;10.60;66.70
5192;DHT22;2615;44.524;11.284;2023-02-22T04:50:39;10.60;66.80
5192;DHT22;2615;44.524;11.284;2023-02-22T04:53:07;10.60;66.90
5192;DHT22;2615;44.524;11.284;2023-02-22T04:55:36;10.60;66.90
5192;DHT22;2615;44.524;11.284;2023-02-22T04:58:05;10.60;66.90
5192;DHT22;2615;44.524;11.284;2023-02-22T05:00:35;10.60;67.00
5192;DHT22;2615;44.524;11.284;2023-02-22T05:05:31;10.60;66.40
5192;DHT22;2615;44.524;11.284;2023-02-22T05:08:00;10.60;67.10
5192;DHT22;2615;44.524;11.284;2023-02-22T05:10:28;10.60;67.10
5192;DHT22;2615;44.524;11.284;2023-02-22T05:12:56;10.60;67.10
5192;DHT22;2615;44.524;11.284;2023-02-22T05:15:25;10.60;67.10
5192;DHT22;2615;44.524;11.284;2023-02-22T05:17:53;10.60;67.20
5192;DHT22;2615;44.524;11.284;2023-02-22T05:20:24;10.60;67.20
5192;DHT22;2615;44.524;11.284;2023-02-22T05:22:54;10.60;67.20
5192;DHT22;2615;44.524;11.284;2023-02-22T05:25:22;10.50;67.20
5192;DHT22;2615;44.524;11.284;2023-02-22T05:27:52;10.60;67.30
5192;DHT22;2615;44.524;11.284;2023-02-22T05:30:21;10.50;67.30
5192;DHT22;2615;44.524;11.284;2023-02-22T05:32:52;10.60;67.40
5192;DHT22;2615;44.524;11.284;2023-02-22T05:35:21;10.50;67.30
5192;DHT22;2615;44.524;11.284;2023-02-22T05:37:49;10.50;67.40
5192;DHT22;2615;44.524;11.284;2023-02-22T05:40:18;10.50;67.30
5192;DHT22;2615;44.524;11.284;2023-02-22T05:42:47;10.50;67.40
5192;DHT22;2615;44.524;11.284;2023-02-22T05:45:16;10.50;67.40
5192;DHT22;2615;44.524;11.284;2023-02-22T05:47:46;10.50;67.50
5192;DHT22;2615;44.524;11.284;2023-02-22T05:50:15;10.50;67.50
5192;DHT22;2615;44.524;11.284;2023-02-22T05:52:44;10.50;67.60
5192;DHT22;2615;44.524;11.284;2023-02-22T05:55:14;10.50;67.60
5192;DHT22;2615;44.524;11.284;2023-02-22T05:57:43;10.50;67.70
5192;DHT22;2615;44.524;11.284;2023-02-22T06:00:15;10.50;67.70
5192;DHT22;2615;44.524;11.284;2023-02-22T06:02:43;10.60;67.80
5192;DHT22;2615;44.524;11.284;2023-02-22T06:05:12;10.50;67.70
5192;DHT22;2615;44.524;11.284;2023-02-22T06:07:41;10.50;67.80
5192;DHT22;2615;44.524;11.284;2023-02-22T06:10:10;10.60;67.80
5192;DHT22;2615;44.524;11.284;2023-02-22T06:12:39;10.60;67.80
5192;DHT22;2615;44.524;11.284;2023-02-22T06:15:07;10.60;67.30
5192;DHT22;2615;44.524;11.284;2023-02-22T06:17:35;10.60;67.90
5192;DHT22;2615;44.524;11.284;2023-02-22T06:20:06;10.60;67.90
5192;DHT22;2615;44.524;11.284;2023-02-22T06:22:34;10.60;67.80
5192;DHT22;2615;44.524;11.284;2023-02-22T06:25:04;10.60;67.90
5192;DHT22;2615;44.524;11.284;2023-02-22T06:27:33;10.60;67.90
5192;DHT22;2615;44.524;11.284;2023-02-22T06:30:02;10.60;68.60
5192;DHT22;2615;44.524;11.284;2023-02-22T06:32:30;10.60;68.00
5192;DHT22;2615;44.524;11.284;2023-02-22T06:34:59;10.60;68.00
5192;DHT22;2615;44.524;11.284;2023-02-22T06:37:27;10.60;68.00
5192;DHT22;2615;44.524;11.284;2023-02-22T06:39:55;10.50;67.90
5192;DHT22;2615;44.524;11.284;2023-02-22T06:42:29;10.50;68.00
5192;DHT22;2615;44.524;11.284;2023-02-22T06:44:57;10.50;68.10
5192;DHT22;2615;44.524;11.284;2023-02-22T06:47:25;10.50;68.10
5192;DHT22;2615;44.524;11.284;2023-02-22T06:49:54;10.60;68.20
5192;DHT22;2615;44.524;11.284;2023-02-22T06:52:23;10.60;68.30
5192;DHT22;2615;44.524;11.284;2023-02-22T06:54:51;10.60;68.30
5192;DHT22;2615;44.524;11.284;2023-02-22T06:57:20;10.60;68.30
5192;DHT22;2615;44.524;11.284;2023-02-22T06:59:49;10.60;68.30
5192;DHT22;2615;44.524;11.284;2023-02-22T07:02:17;10.60;68.30
5192;DHT22;2615;44.524;11.284;2023-02-22T07:04:45;10.60;68.40
5192;DHT22;2615;44.524;11.284;2023-02-22T07:07:13;10.70;68.40
5192;DHT22;2615;44.524;11.284;2023-02-22T07:09:45;10.70;68.40
5192;DHT22;2615;44.524;11.284;2023-02-22T07:12:13;10.70;68.40
5192;DHT22;2615;44.524;11.284;2023-02-22T07:14:41;10.70;68.50
5192;DHT22;2615;44.524;11.284;2023-02-22T07:17:11;10.70;68.40
5192;DHT22;2615;44.524;11.284;2023-02-22T07:19:39;10.70;68.50
5192;DHT22;2615;44.524;11.284;2023-02-22T07:22:07;10.80;68.50
5192;DHT22;2615;44.524;11.284;2023-02-22T07:24:35;10.80;68.50
5192;DHT22;2615;44.524;11.284;2023-02-22T07:27:03;10.80;68.60
5192;DHT22;2615;44.524;11.284;2023-02-22T07:29:32;10.80;68.50
5192;DHT22;2615;44.524;11.284;2023-02-22T07:32:02;10.80;68.50
5192;DHT22;2615;44.524;11.284;2023-02-22T07:34:31;10.80;68.50
5192;DHT22;2615;44.524;11.284;2023-02-22T07:36:59;10.90;68.80
5192;DHT22;2615;44.524;11.284;2023-02-22T07:39:27;10.90;68.70
5192;DHT22;2615;44.524;11.284;2023-02-22T07:41:55;10.90;68.70
5192;DHT22;2615;44.524;11.284;2023-02-22T07:44:25;10.90;68.70
5192;DHT22;2615;44.524;11.284;2023-02-22T07:46:53;10.90;68.70
5192;DHT22;2615;44.524;11.284;2023-02-22T07:49:21;10.90;68.60
5192;DHT22;2615;44.524;11.284;2023-02-22T07:51:50;11.00;69.40
5192;DHT22;2615;44.524;11.284;2023-02-22T07:54:19;11.00;68.70
5192;DHT22;2615;44.524;11.284;2023-02-22T07:56:47;11.00;68.70
5192;DHT22;2615;44.524;11.284;2023-02-22T07:59:15;11.00;68.70
5192;DHT22;2615;44.524;11.284;2023-02-22T08:01:43;11.00;68.70
5192;DHT22;2615;44.524;11.284;2023-02-22T08:04:11;11.00;68.60
5192;DHT22;2615;44.524;11.284;2023-02-22T08:06:39;11.00;68.60
5192;DHT22;2615;44.524;11.284;2023-02-22T08:09:09;11.10;68.70
5192;DHT22;2615;44.524;11.284;2023-02-22T08:11:37;11.10;68.60
5192;DHT22;2615;44.524;11.284;2023-02-22T08:14:05;11.10;68.60
5192;DHT22;2615;44.524;11.284;2023-02-22T08:16:33;11.10;68.60
5192;DHT22;2615;44.524;11.284;2023-02-22T08:19:02;11.10;68.60
5192;DHT22;2615;44.524;11.284;2023-02-22T08:21:30;11.10;68.60
5192;DHT22;2615;44.524;11.284;2023-02-22T08:23:58;11.20;68.70
5192;DHT22;2615;44.524;11.284;2023-02-22T08:26:27;11.20;68.70
5192;DHT22;2615;44.524;11.284;2023-02-22T08:28:55;11.20;68.60
5192;DHT22;2615;44.524;11.284;2023-02-22T08:31:23;11.20;68.60
5192;DHT22;2615;44.524;11.284;2023-02-22T08:33:51;11.30;68.70
5192;DHT22;2615;44.524;11.284;2023-02-22T08:36:20;11.30;68.60
5192;DHT22;2615;44.524;11.284;2023-02-22T08:38:57;11.30;68.60
5192;DHT22;2615;44.524;11.284;2023-02-22T08:41:39;11.30;68.60
5192;DHT22;2615;44.524;11.284;2023-02-22T08:44:07;11.40;68.60
5192;DHT22;2615;44.524;11.284;2023-02-22T08:46:35;11.40;68.50
5192;DHT22;2615;44.524;11.284;2023-02-22T08:49:04;11.40;68.50
5192;DHT22;2615;44.524;11.284;2023-02-22T08:51:35;11.50;68.50
5192;DHT22;2615;44.524;11.284;2023-02-22T08:54:03;11.50;68.50
5192;DHT22;2615;44.524;11.284;2023-02-22T08:56:32;11.50;69.10
5192;DHT22;2615;44.524;11.284;2023-02-22T08:59:02;11.60;68.50
5192;DHT22;2615;44.524;11.284;2023-02-22T09:01:30;11.60;68.40
5192;DHT22;2615;44.524;11.284;2023-02-22T09:04:00;11.70;68.40
5192;DHT22;2615;44.524;11.284;2023-02-22T09:06:29;11.70;68.30
5192;DHT22;2615;44.524;11.284;2023-02-22T09:08:57;11.70;68.20
5192;DHT22;2615;44.524;11.284;2023-02-22T09:11:25;11.80;68.30
5192;DHT22;2615;44.524;11.284;2023-02-22T09:13:53;11.80;68.20
5192;DHT22;2615;44.524;11.284;2023-02-22T09:16:22;11.80;68.00
5192;DHT22;2615;44.524;11.284;2023-02-22T09:18:51;11.90;68.00
5192;DHT22;2615;44.524;11.284;2023-02-22T09:21:19;11.90;68.00
5192;DHT22;2615;44.524;11.284;2023-02-22T09:23:47;12.00;68.00
5192;DHT22;2615;44.524;11.284;2023-02-22T09:26:15;12.00;68.00
5192;DHT22;2615;44.524;11.284;2023-02-22T09:28:43;12.10;68.00
5192;DHT22;2615;44.524;11.284;2023-02-22T09:31:11;12.20;67.90
5192;DHT22;2615;44.524;11.284;2023-02-22T09:33:41;12.20;67.80
5192;DHT22;2615;44.524;11.284;2023-02-22T09:36:13;12.20;67.60
5192;DHT22;2615;44.524;11.284;2023-02-22T09:38:41;12.30;67.60
5192;DHT22;2615;44.524;11.284;2023-02-22T09:41:14;12.30;67.50
5192;DHT22;2615;44.524;11.284;2023-02-22T09:43:49;12.40;67.50
5192;DHT22;2615;44.524;11.284;2023-02-22T09:46:23;12.40;67.40
5192;DHT22;2615;44.524;11.284;2023-02-22T09:49:01;12.40;67.30
5192;DHT22;2615;44.524;11.284;2023-02-22T09:51:36;12.50;67.30
5192;DHT22;2615;44.524;11.284;2023-02-22T09:54:13;12.50;67.20
5192;DHT22;2615;44.524;11.284;2023-02-22T09:56:45;12.60;67.10
5192;DHT22;2615;44.524;11.284;2023-02-22T09:59:17;12.60;66.90
5192;DHT22;2615;44.524;11.284;2023-02-22T10:01:54;12.60;66.90
5192;DHT22;2615;44.524;11.284;2023-02-22T10:04:36;12.70;66.90
5192;DHT22;2615;44.524;11.284;2023-02-22T10:07:15;12.80;66.90
5192;DHT22;2615;44.524;11.284;2023-02-22T10:09:46;12.80;66.70
5192;DHT22;2615;44.524;11.284;2023-02-22T10:12:24;12.90;66.70
5192;DHT22;2615;44.524;11.284;2023-02-22T10:15:30;12.90;66.60
5192;DHT22;2615;44.524;11.284;2023-02-22T10:18:20;13.00;66.50
5192;DHT22;2615;44.524;11.284;2023-02-22T10:21:00;13.00;66.40
5192;DHT22;2615;44.524;11.284;2023-02-22T10:23:40;13.10;66.30
5192;DHT22;2615;44.524;11.284;2023-02-22T10:26:15;13.20;66.20
5192;DHT22;2615;44.524;11.284;2023-02-22T10:28:51;13.20;65.90
5192;DHT22;2615;44.524;11.284;2023-02-22T10:31:24;13.30;65.90
5192;DHT22;2615;44.524;11.284;2023-02-22T10:33:57;13.30;65.80
5192;DHT22;2615;44.524;11.284;2023-02-22T10:36:28;13.40;65.80
5192;DHT22;2615;44.524;11.284;2023-02-22T10:38:59;13.40;65.50
5192;DHT22;2615;44.524;11.284;2023-02-22T10:41:29;13.50;65.50
5192;DHT22;2615;44.524;11.284;2023-02-22T10:43:58;13.50;65.40
5192;DHT22;2615;44.524;11.284;2023-02-22T10:46:27;13.60;65.40
5192;DHT22;2615;44.524;11.284;2023-02-22T10:49:00;13.60;65.30
5192;DHT22;2615;44.524;11.284;2023-02-22T10:51:32;13.70;65.20
5192;DHT22;2615;44.524;11.284;2023-02-22T10:54:18;13.70;64.90
5192;DHT22;2615;44.524;11.284;2023-02-22T10:56:49;13.80;64.90
5192;DHT22;2615;44.524;11.284;2023-02-22T10:59:29;13.80;64.80
5192;DHT22;2615;44.524;11.284;2023-02-22T11:02:00;13.90;64.80
5192;DHT22;2615;44.524;11.284;2023-02-22T11:04:44;13.90;64.70
5192;DHT22;2615;44.524;11.284;2023-02-22T11:07:22;13.90;64.50
5192;DHT22;2615;44.524;11.284;2023-02-22T11:09:53;14.00;64.50
5192;DHT22;2615;44.524;11.284;2023-02-22T11:12:27;14.00;64.40
5192;DHT22;2615;44.524;11.284;2023-02-22T11:14:56;14.10;64.40
5192;DHT22;2615;44.524;11.284;2023-02-22T11:17:30;14.20;64.30
5192;DHT22;2615;44.524;11.284;2023-02-22T11:19:59;14.20;64.10
5192;DHT22;2615;44.524;11.284;2023-02-22T11:22:35;14.30;64.00
5192;DHT22;2615;44.524;11.284;2023-02-22T11:25:05;14.40;63.90
5192;DHT22;2615;44.524;11.284;2023-02-22T11:27:37;14.50;63.90
5192;DHT22;2615;44.524;11.284;2023-02-22T11:30:25;14.50;63.70
5192;DHT22;2615;44.524;11.284;2023-02-22T11:32:57;14.60;63.50
5192;DHT22;2615;44.524;11.284;2023-02-22T11:35:33;14.60;63.40
5192;DHT22;2615;44.524;11.284;2023-02-22T11:38:19;14.70;63.30
5192;DHT22;2615;44.524;11.284;2023-02-22T11:41:05;14.80;63.20
5192;DHT22;2615;44.524;11.284;2023-02-22T11:43:34;14.80;63.10
5192;DHT22;2615;44.524;11.284;2023-02-22T11:46:04;14.90;63.10
5192;DHT22;2615;44.524;11.284;2023-02-22T11:48:36;15.00;63.10
5192;DHT22;2615;44.524;11.284;2023-02-22T11:51:20;15.10;63.00
5192;DHT22;2615;44.524;11.284;2023-02-22T11:54:13;15.10;62.70
5192;DHT22;2615;44.524;11.284;2023-02-22T11:56:52;15.20;62.60
5192;DHT22;2615;44.524;11.284;2023-02-22T11:59:32;15.20;62.50
5192;DHT22;2615;44.524;11.284;2023-02-22T12:02:20;15.20;62.30
5192;DHT22;2615;44.524;11.284;2023-02-22T12:05:11;15.20;62.10
5192;DHT22;2615;44.524;11.284;2023-02-22T12:07:53;15.20;62.00
5192;DHT22;2615;44.524;11.284;2023-02-22T12:10:38;15.30;62.80
5192;DHT22;2615;44.524;11.284;2023-02-22T12:13:21;15.30;61.90
5192;DHT22;2615;44.524;11.284;2023-02-22T12:15:57;15.30;61.90
5192;DHT22;2615;44.524;11.284;2023-02-22T12:18:34;15.30;61.80
5192;DHT22;2615;44.524;11.284;2023-02-22T12:21:07;15.30;61.70
5192;DHT22;2615;44.524;11.284;2023-02-22T12:23:42;15.40;61.80
5192;DHT22;2615;44.524;11.284;2023-02-22T12:26:16;15.30;61.50
5192;DHT22;2615;44.524;11.284;2023-02-22T12:28:51;15.30;61.40
5192;DHT22;2615;44.524;11.284;2023-02-22T12:31:29;15.30;61.40
5192;DHT22;2615;44.524;11.284;2023-02-22T12:34:05;15.30;61.40
5192;DHT22;2615;44.524;11.284;2023-02-22T12:36:39;15.30;61.40
5192;DHT22;2615;44.524;11.284;2023-02-22T12:39:24;15.30;61.20
5192;DHT22;2615;44.524;11.284;2023-02-22T12:41:57;15.40;61.10
5192;DHT22;2615;44.524;11.284;2023-02-22T12:44:30;15.30;61.00
5192;DHT22;2615;44.524;11.284;2023-02-22T12:47:01;15.30;60.90
5192;DHT22;2615;44.524;11.284;2023-02-22T12:49:37;15.30;60.90
5192;DHT22;2615;44.524;11.284;2023-02-22T12:52:12;15.30;60.70
5192;DHT22;2615;44.524;11.284;2023-02-22T12:54:52;15.30;60.70
5192;DHT22;2615;44.524;11.284;2023-02-22T12:57:30;15.30;60.70
5192;DHT22;2615;44.524;11.284;2023-02-22T13:00:04;15.30;60.70
5192;DHT22;2615;44.524;11.284;2023-02-22T13:02:37;15.30;60.60
5192;DHT22;2615;44.524;11.284;2023-02-22T13:05:13;15.40;60.60
5192;DHT22;2615;44.524;11.284;2023-02-22T13:07:50;15.30;60.40
5192;DHT22;2615;44.524;11.284;2023-02-22T13:10:30;15.30;60.40
5192;DHT22;2615;44.524;11.284;2023-02-22T13:13:09;15.40;60.50
5192;DHT22;2615;44.524;11.284;2023-02-22T13:15:45;15.40;60.50
5192;DHT22;2615;44.524;11.284;2023-02-22T13:18:19;15.40;60.30
5192;DHT22;2615;44.524;11.284;2023-02-22T13:20:56;15.40;60.30
5192;DHT22;2615;44.524;11.284;2023-02-22T13:23:35;15.50;60.30
5192;DHT22;2615;44.524;11.284;2023-02-22T13:26:13;15.40;60.00
5192;DHT22;2615;44.524;11.284;2023-02-22T13:28:46;15.50;60.10
5192;DHT22;2615;44.524;11.284;2023-02-22T13:31:25;15.40;60.00
5192;DHT22;2615;44.524;11.284;2023-02-22T13:34:10;15.40;60.00
5192;DHT22;2615;44.524;11.284;2023-02-22T13:36:56;15.50;60.00
5192;DHT22;2615;44.524;11.284;2023-02-22T13:39:52;15.50;60.00
5192;DHT22;2615;44.524;11.284;2023-02-22T13:42:43;15.50;59.90
5192;DHT22;2615;44.524;11.284;2023-02-22T13:48:36;15.60;60.00
5192;DHT22;2615;44.524;11.284;2023-02-22T13:51:17;15.50;59.90
5192;DHT22;2615;44.524;11.284;2023-02-22T13:53:52;15.50;59.90
5192;DHT22;2615;44.524;11.284;2023-02-22T13:56:22;15.50;60.00
5192;DHT22;2615;44.524;11.284;2023-02-22T13:58:53;15.50;60.00
5192;DHT22;2615;44.524;11.284;2023-02-22T14:01:39;15.50;59.90
5192;DHT22;2615;44.524;11.284;2023-02-22T14:04:20;15.50;59.90
5192;DHT22;2615;44.524;11.284;2023-02-22T14:06:48;15.50;59.90
5192;DHT22;2615;44.524;11.284;2023-02-22T14:09:41;15.50;59.90
5192;DHT22;2615;44.524;11.284;2023-02-22T14:12:47;15.50;59.70
5192;DHT22;2615;44.524;11.284;2023-02-22T14:15:17;15.50;59.70
5192;DHT22;2615;44.524;11.284;2023-02-22T14:18:01;15.50;59.70
5192;DHT22;2615;44.524;11.284;2023-02-22T14:20:32;15.50;59.70
5192;DHT22;2615;44.524;11.284;2023-02-22T14:23:27;15.50;59.70
5192;DHT22;2615;44.524;11.284;2023-02-22T14:26:09;15.50;59.50
5192;DHT22;2615;44.524;11.284;2023-02-22T14:28:42;15.50;59.60
5192;DHT22;2615;44.524;11.284;2023-02-22T14:31:15;15.50;59.60
5192;DHT22;2615;44.524;11.284;2023-02-22T14:34:08;15.60;59.70
5192;DHT22;2615;44.524;11.284;2023-02-22T14:36:42;15.60;59.70
5192;DHT22;2615;44.524;11.284;2023-02-22T14:39:21;15.60;59.70
5192;DHT22;2615;44.524;11.284;2023-02-22T14:41:56;15.60;59.60
5192;DHT22;2615;44.524;11.284;2023-02-22T14:44:31;15.70;59.70
5192;DHT22;2615;44.524;11.284;2023-02-22T14:47:03;15.70;59.60
5192;DHT22;2615;44.524;11.284;2023-02-22T14:49:37;15.70;59.50
5192;DHT22;2615;44.524;11.284;2023-02-22T14:52:16;15.60;59.40
5192;DHT22;2615;44.524;11.284;2023-02-22T14:54:54;15.60;59.30
5192;DHT22;2615;44.524;11.284;2023-02-22T14:57:33;15.60;59.30
5192;DHT22;2615;44.524;11.284;2023-02-22T15:00:13;15.60;59.30
5192;DHT22;2615;44.524;11.284;2023-02-22T15:02:58;15.60;59.20
5192;DHT22;2615;44.524;11.284;2023-02-22T15:05:29;15.60;59.20
5192;DHT22;2615;44.524;11.284;2023-02-22T15:08:02;15.50;59.10
5192;DHT22;2615;44.524;11.284;2023-02-22T15:10:39;15.50;59.10
5192;DHT22;2615;44.524;11.284;2023-02-22T15:13:15;15.40;59.00
5192;DHT22;2615;44.524;11.284;2023-02-22T15:15:45;15.40;59.00
5192;DHT22;2615;44.524;11.284;2023-02-22T15:18:23;15.40;58.90
5192;DHT22;2615;44.524;11.284;2023-02-22T15:20:56;15.40;58.90
5192;DHT22;2615;44.524;11.284;2023-02-22T15:23:27;15.30;58.90
5192;DHT22;2615;44.524;11.284;2023-02-22T15:25:59;15.30;58.90
5192;DHT22;2615;44.524;11.284;2023-02-22T15:28:29;15.20;58.80
5192;DHT22;2615;44.524;11.284;2023-02-22T15:31:16;15.20;58.90
5192;DHT22;2615;44.524;11.284;2023-02-22T15:33:45;15.20;58.80
5192;DHT22;2615;44.524;11.284;2023-02-22T15:36:15;15.20;58.90
5192;DHT22;2615;44.524;11.284;2023-02-22T15:38:47;15.10;58.80
5192;DHT22;2615;44.524;11.284;2023-02-22T15:41:26;15.10;58.80
5192;DHT22;2615;44.524;11.284;2023-02-22T15:43:59;15.10;58.80
5192;DHT22;2615;44.524;11.284;2023-02-22T15:46:39;15.10;58.90
5192;DHT22;2615;44.524;11.284;2023-02-22T15:49:20;15.00;58.90
5192;DHT22;2615;44.524;11.284;2023-02-22T15:52:04;15.00;59.00
5192;DHT22;2615;44.524;11.284;2023-02-22T15:54:41;14.90;59.00
5192;DHT22;2615;44.524;11.284;2023-02-22T15:57:13;14.90;59.10
5192;DHT22;2615;44.524;11.284;2023-02-22T15:59:46;14.90;59.10
5192;DHT22;2615;44.524;11.284;2023-02-22T16:02:34;14.80;59.10
5192;DHT22;2615;44.524;11.284;2023-02-22T16:05:07;14.80;59.10
5192;DHT22;2615;44.524;11.284;2023-02-22T16:07:41;14.80;59.20
5192;DHT22;2615;44.524;11.284;2023-02-22T16:10:27;14.70;59.20
5192;DHT22;2615;44.524;11.284;2023-02-22T16:13:05;14.60;59.20
5192;DHT22;2615;44.524;11.284;2023-02-22T16:15:34;14.60;59.20
5192;DHT22;2615;44.524;11.284;2023-02-22T16:18:33;14.60;59.30
5192;DHT22;2615;44.524;11.284;2023-02-22T16:21:04;14.50;59.40
5192;DHT22;2615;44.524;11.284;2023-02-22T16:23:45;14.50;59.40
5192;DHT22;2615;44.524;11.284;2023-02-22T16:26:22;14.40;59.40
5192;DHT22;2615;44.524;11.284;2023-02-22T16:28:52;14.40;59.60
5192;DHT22;2615;44.524;11.284;2023-02-22T16:31:23;14.30;59.60
5192;DHT22;2615;44.524;11.284;2023-02-22T16:33:52;14.30;59.70
5192;DHT22;2615;44.524;11.284;2023-02-22T16:36:24;14.30;59.70
5192;DHT22;2615;44.524;11.284;2023-02-22T16:39:06;14.20;59.80
5192;DHT22;2615;44.524;11.284;2023-02-22T16:41:34;14.20;59.80
5192;DHT22;2615;44.524;11.284;2023-02-22T16:44:02;14.20;60.00